createdAt,value
2018-04-24T00:00:35.787Z,50.05
2018-04-24T00:01:35.974Z,64.45
2018-04-24T00:02:36.148Z,49.56
2018-04-24T00:03:36.327Z,55.42
2018-04-24T00:04:36.513Z,54.20
2018-04-24T00:05:36.686Z,47.85
2018-04-24T00:06:36.870Z,52.25
2018-04-24T00:07:37.049Z,68.12
2018-04-24T00:08:37.226Z,55.42
2018-04-24T00:09:37.412Z,55.91
2018-04-24T00:10:37.590Z,50.29
2018-04-24T00:11:37.766Z,54.69
2018-04-24T00:12:37.947Z,54.20
2018-04-24T00:13:38.136Z,47.85
2018-04-24T00:14:38.309Z,50.05
2018-04-24T00:15:38.487Z,51.03
2018-04-24T00:16:38.666Z,48.58
2018-04-24T00:17:38.851Z,58.35
2018-04-24T00:18:39.026Z,54.69
2018-04-24T00:19:39.208Z,51.76
2018-04-24T00:20:39.387Z,57.13
2018-04-24T00:21:39.569Z,61.77
2018-04-24T00:22:39.750Z,48.83
2018-04-24T00:23:39.929Z,59.33
2018-04-24T00:24:40.102Z,59.81
2018-04-24T00:25:40.286Z,55.42
2018-04-24T00:26:40.467Z,49.07
2018-04-24T00:27:40.645Z,49.32
2018-04-24T00:28:40.829Z,50.05
2018-04-24T00:29:41.004Z,51.27
2018-04-24T00:30:41.183Z,50.05
2018-04-24T00:31:41.362Z,53.22
2018-04-24T00:32:41.542Z,75.44
2018-04-24T00:33:41.730Z,53.22
2018-04-24T00:34:41.900Z,63.96
2018-04-24T00:35:42.084Z,53.22
2018-04-24T00:36:42.269Z,53.71
2018-04-24T00:37:42.441Z,49.80
2018-04-24T00:38:42.621Z,50.05
2018-04-24T00:39:42.796Z,52.49
2018-04-24T00:40:42.975Z,52.98
2018-04-24T00:41:43.159Z,51.51
2018-04-24T00:42:43.336Z,49.07
2018-04-24T00:43:43.520Z,50.78
2018-04-24T00:44:43.697Z,55.42
2018-04-24T00:45:43.895Z,59.08
2018-04-24T00:46:44.052Z,58.84
2018-04-24T00:47:44.230Z,52.49
2018-04-24T00:48:44.413Z,49.32
2018-04-24T00:49:44.589Z,49.07
2018-04-24T00:50:44.771Z,49.80
2018-04-24T00:51:44.956Z,53.22
2018-04-24T00:52:45.135Z,51.76
2018-04-24T00:53:45.317Z,57.86
2018-04-24T00:54:45.488Z,59.08
2018-04-24T00:55:45.663Z,55.42
2018-04-24T00:56:45.842Z,48.58
2018-04-24T00:57:46.264Z,75.44
2018-04-24T00:58:46.214Z,50.05
2018-04-24T00:59:46.380Z,48.83
2018-04-24T01:00:46.565Z,52.49
2018-04-24T01:01:46.744Z,47.36
2018-04-24T01:02:46.922Z,56.15
2018-04-24T01:03:47.184Z,50.54
2018-04-24T01:04:47.283Z,48.83
2018-04-24T01:05:47.462Z,47.85
2018-04-24T01:06:47.677Z,53.71
2018-04-24T01:07:47.833Z,53.22
2018-04-24T01:08:47.998Z,50.05
2018-04-24T01:09:48.185Z,54.93
2018-04-24T01:10:48.361Z,47.85
2018-04-24T01:11:48.542Z,56.15
2018-04-24T01:12:48.725Z,62.50
2018-04-24T01:13:48.895Z,58.84
2018-04-24T01:14:49.075Z,51.03
2018-04-24T01:15:49.257Z,47.36
2018-04-24T01:16:49.433Z,50.05
2018-04-24T01:17:49.615Z,50.29
2018-04-24T01:18:49.792Z,59.81
2018-04-24T01:19:49.973Z,48.83
2018-04-24T01:20:50.150Z,47.85
2018-04-24T01:21:50.321Z,49.80
2018-04-24T01:22:50.507Z,60.79
2018-04-24T01:23:50.688Z,55.18
2018-04-24T01:24:50.872Z,49.32
2018-04-24T01:25:51.064Z,49.07
2018-04-24T01:26:51.226Z,56.64
2018-04-24T01:27:51.404Z,51.03
2018-04-24T01:28:51.594Z,48.58
2018-04-24T01:29:51.755Z,48.58
2018-04-24T01:30:51.934Z,50.05
2018-04-24T01:31:52.117Z,50.29
2018-04-24T01:32:52.294Z,51.51
2018-04-24T01:33:52.473Z,50.78
2018-04-24T01:34:52.651Z,53.96
2018-04-24T01:35:53.076Z,50.78
2018-04-24T01:36:53.009Z,51.76
2018-04-24T01:37:53.190Z,50.54
2018-04-24T01:38:53.373Z,50.54
2018-04-24T01:39:53.546Z,65.19
2018-04-24T01:40:53.733Z,50.29
2018-04-24T01:41:53.909Z,50.05
2018-04-24T01:42:54.087Z,49.80
2018-04-24T01:43:54.266Z,50.05
2018-04-24T01:45:54.613Z,51.27
2018-04-24T01:46:54.791Z,50.05
2018-04-24T01:47:54.970Z,49.56
2018-04-24T01:48:55.153Z,52.25
2018-04-24T01:49:55.329Z,62.99
2018-04-24T01:50:55.508Z,51.51
2018-04-24T01:51:55.690Z,59.57
2018-04-24T01:52:55.864Z,53.71
2018-04-24T01:53:56.055Z,61.28
2018-04-24T01:55:56.391Z,60.79
2018-04-24T01:56:56.570Z,53.96
2018-04-24T01:57:56.749Z,50.78
2018-04-24T01:58:56.929Z,53.22
2018-04-24T01:59:57.112Z,52.25
2018-04-24T02:00:57.298Z,52.25
2018-04-24T02:01:57.484Z,48.58
2018-04-24T02:02:57.658Z,50.05
2018-04-24T02:03:57.834Z,51.03
2018-04-24T02:04:58.016Z,51.03
2018-04-24T02:05:58.192Z,51.27
2018-04-24T02:06:58.372Z,51.76
2018-04-24T02:07:58.553Z,50.78
2018-04-24T02:08:58.729Z,52.98
2018-04-24T02:09:58.904Z,60.30
2018-04-24T02:10:59.083Z,51.27
2018-04-24T02:11:59.262Z,51.76
2018-04-24T02:12:59.452Z,53.71
2018-04-24T02:13:59.620Z,51.51
2018-04-24T02:14:59.799Z,50.78
2018-04-24T02:15:59.981Z,52.25
2018-04-24T02:17:00.170Z,58.84
2018-04-24T02:18:00.338Z,58.84
2018-04-24T02:19:00.516Z,51.76
2018-04-24T02:20:00.693Z,52.49
2018-04-24T02:21:00.877Z,49.32
2018-04-24T02:22:01.050Z,50.05
2018-04-24T02:23:01.223Z,49.32
2018-04-24T02:24:01.401Z,56.64
2018-04-24T02:25:01.681Z,51.51
2018-04-24T02:26:01.757Z,51.76
2018-04-24T02:27:01.937Z,49.80
2018-04-24T02:28:02.113Z,50.54
2018-04-24T02:29:02.572Z,52.25
2018-04-24T02:30:02.466Z,50.54
2018-04-24T02:31:02.646Z,51.51
2018-04-24T02:32:02.826Z,54.69
2018-04-24T02:33:03.002Z,50.29
2018-04-24T02:34:03.181Z,52.25
2018-04-24T02:35:03.357Z,58.84
2018-04-24T02:36:03.535Z,49.80
2018-04-24T02:37:03.714Z,50.05
2018-04-24T02:38:03.899Z,53.47
2018-04-24T02:39:04.333Z,52.25
2018-04-24T02:40:04.242Z,51.51
2018-04-24T02:41:04.424Z,50.78
2018-04-24T02:42:04.610Z,53.22
2018-04-24T02:43:04.776Z,54.44
2018-04-24T02:44:04.958Z,51.27
2018-04-24T02:45:05.142Z,57.37
2018-04-24T02:46:05.313Z,52.00
2018-04-24T02:47:05.500Z,52.73
2018-04-24T02:48:05.673Z,52.25
2018-04-24T02:49:05.853Z,51.27
2018-04-24T02:50:06.042Z,50.05
2018-04-24T02:51:06.213Z,51.27
2018-04-24T02:52:06.389Z,52.25
2018-04-24T02:53:06.574Z,52.73
2018-04-24T02:54:06.744Z,52.49
2018-04-24T02:55:06.925Z,55.66
2018-04-24T02:56:07.102Z,52.49
2018-04-24T02:57:07.285Z,55.66
2018-04-24T02:58:07.463Z,58.11
2018-04-24T02:59:07.651Z,57.62
2018-04-24T03:00:07.822Z,62.50
2018-04-24T03:01:07.999Z,58.35
2018-04-24T03:02:08.183Z,58.84
2018-04-24T03:03:08.366Z,59.08
2018-04-24T03:04:08.543Z,58.35
2018-04-24T03:05:08.714Z,62.50
2018-04-24T03:06:08.897Z,60.79
2018-04-24T03:07:09.069Z,57.86
2018-04-24T03:08:09.256Z,57.13
2018-04-24T03:09:09.429Z,58.35
2018-04-24T03:10:09.612Z,60.79
2018-04-24T03:11:09.791Z,57.62
2018-04-24T03:12:09.972Z,59.08
2018-04-24T03:13:10.162Z,56.40
2018-04-24T03:14:10.338Z,56.15
2018-04-24T03:15:10.519Z,58.59
2018-04-24T03:16:10.688Z,60.30
2018-04-24T03:17:10.869Z,58.11
2018-04-24T03:18:11.055Z,67.87
2018-04-24T03:19:11.220Z,68.12
2018-04-24T03:20:11.401Z,70.07
2018-04-24T03:21:11.581Z,69.82
2018-04-24T03:22:11.760Z,59.57
2018-04-24T03:23:11.930Z,60.06
2018-04-24T03:24:12.109Z,61.28
2018-04-24T03:25:12.294Z,71.78
2018-04-24T03:26:12.477Z,59.08
2018-04-24T03:27:12.644Z,60.30
2018-04-24T03:28:12.815Z,71.29
2018-04-24T03:29:12.994Z,68.12
2018-04-24T03:30:13.176Z,67.14
2018-04-24T03:31:13.352Z,67.63
2018-04-24T03:32:13.529Z,68.12
2018-04-24T03:33:13.948Z,68.85
2018-04-24T03:34:13.880Z,68.60
2018-04-24T03:35:14.059Z,58.35
2018-04-24T03:36:14.481Z,57.13
2018-04-24T03:37:14.418Z,62.99
2018-04-24T03:38:14.600Z,67.14
2018-04-24T03:39:14.775Z,65.43
2018-04-24T03:40:14.952Z,64.45
2018-04-24T03:41:15.126Z,63.96
2018-04-24T03:42:15.306Z,64.70
2018-04-24T03:43:15.486Z,60.06
2018-04-24T03:44:15.664Z,69.82
2018-04-24T03:45:15.832Z,58.11
2018-04-24T03:46:16.036Z,54.44
2018-04-24T03:47:16.190Z,53.47
2018-04-24T03:48:16.364Z,60.79
2018-04-24T03:49:16.540Z,61.28
2018-04-24T03:50:16.716Z,68.12
2018-04-24T03:51:16.917Z,61.77
2018-04-24T03:52:17.069Z,60.30
2018-04-24T03:53:17.254Z,62.74
2018-04-24T03:54:17.432Z,62.01
2018-04-24T03:55:17.606Z,61.04
2018-04-24T03:56:17.781Z,54.69
2018-04-24T03:57:18.025Z,56.64
2018-04-24T03:58:18.137Z,54.69
2018-04-24T03:59:18.315Z,55.66
2018-04-24T04:00:18.497Z,68.60
2018-04-24T04:01:18.673Z,66.16
2018-04-24T04:02:18.847Z,60.30
2018-04-24T04:03:19.036Z,62.99
2018-04-24T04:04:19.201Z,55.91
2018-04-24T04:05:19.379Z,62.50
2018-04-24T04:06:19.559Z,59.33
2018-04-24T04:07:19.729Z,59.33
2018-04-24T04:08:19.937Z,56.64
2018-04-24T04:09:20.089Z,62.50
2018-04-24T04:10:20.276Z,72.51
2018-04-24T04:11:20.447Z,59.33
2018-04-24T04:12:20.621Z,58.35
2018-04-24T04:13:20.802Z,66.65
2018-04-24T04:14:20.985Z,81.79
2018-04-24T04:15:21.153Z,67.38
2018-04-24T04:16:21.330Z,63.23
2018-04-24T04:17:21.509Z,58.84
2018-04-24T04:18:21.684Z,63.72
2018-04-24T04:19:21.863Z,58.11
2018-04-24T04:20:22.042Z,67.14
2018-04-24T04:21:22.219Z,66.41
2018-04-24T04:22:22.460Z,65.43
2018-04-24T04:23:22.577Z,69.34
2018-04-24T04:24:22.764Z,70.80
2018-04-24T04:25:22.934Z,72.75
2018-04-24T04:26:23.114Z,74.95
2018-04-24T04:27:23.293Z,73.24
2018-04-24T04:28:23.473Z,71.29
2018-04-24T04:29:23.651Z,68.85
2018-04-24T04:30:23.835Z,71.04
2018-04-24T04:31:24.008Z,69.34
2018-04-24T04:32:24.188Z,70.07
2018-04-24T04:33:24.363Z,68.85
2018-04-24T04:34:24.545Z,69.58
2018-04-24T04:35:24.719Z,68.60
2018-04-24T04:36:24.906Z,63.48
2018-04-24T04:37:25.086Z,67.14
2018-04-24T04:38:25.263Z,71.29
2018-04-24T04:39:25.451Z,65.92
2018-04-24T04:40:25.636Z,69.34
2018-04-24T04:41:25.810Z,62.26
2018-04-24T04:42:25.977Z,67.63
2018-04-24T04:43:26.150Z,73.97
2018-04-24T04:44:26.328Z,70.56
2018-04-24T04:45:26.507Z,67.63
2018-04-24T04:46:26.687Z,62.99
2018-04-24T04:47:26.865Z,63.23
2018-04-24T04:48:27.039Z,57.86
2018-04-24T04:49:27.218Z,63.96
2018-04-24T04:50:27.398Z,60.55
2018-04-24T04:51:27.585Z,68.12
2018-04-24T04:52:27.747Z,60.55
2018-04-24T04:53:27.938Z,61.04
2018-04-24T04:54:28.112Z,59.33
2018-04-24T04:55:28.294Z,65.43
2018-04-24T04:56:28.473Z,61.77
2018-04-24T04:57:28.891Z,59.08
2018-04-24T04:58:28.827Z,56.88
2018-04-24T04:59:29.007Z,58.35
2018-04-24T05:00:29.184Z,70.56
2018-04-24T05:01:29.369Z,78.37
2018-04-24T05:02:29.554Z,78.37
2018-04-24T05:03:29.977Z,77.64
2018-04-24T05:04:29.915Z,78.86
2018-04-24T05:05:30.100Z,78.13
2018-04-24T05:06:30.276Z,78.13
2018-04-24T05:07:30.468Z,63.23
2018-04-24T05:08:30.636Z,64.45
2018-04-24T05:09:30.818Z,67.14
2018-04-24T05:10:30.989Z,62.26
2018-04-24T05:11:31.167Z,64.70
2018-04-24T05:12:31.346Z,69.82
2018-04-24T05:13:31.525Z,68.60
2018-04-24T05:14:31.704Z,57.37
2018-04-24T05:15:31.897Z,66.41
2018-04-24T05:16:32.078Z,63.96
2018-04-24T05:17:32.275Z,67.38
2018-04-24T05:18:32.430Z,69.09
2018-04-24T05:19:32.598Z,67.87
2018-04-24T05:20:32.779Z,65.43
2018-04-24T05:21:32.953Z,68.60
2018-04-24T05:22:33.129Z,59.08
2018-04-24T05:23:33.315Z,62.74
2018-04-24T05:24:33.736Z,70.80
2018-04-24T05:25:33.678Z,61.77
2018-04-24T05:26:33.829Z,66.16
2018-04-24T05:28:34.175Z,61.52
2018-04-24T05:29:34.358Z,70.80
2018-04-24T05:30:34.541Z,66.89
2018-04-24T05:31:34.718Z,62.99
2018-04-24T05:32:34.891Z,62.74
2018-04-24T05:33:35.080Z,62.99
2018-04-24T05:34:35.255Z,62.50
2018-04-24T05:35:35.436Z,62.99
2018-04-24T05:36:35.617Z,66.65
2018-04-24T05:37:35.796Z,65.43
2018-04-24T05:38:35.979Z,65.67
2018-04-24T05:39:36.157Z,59.81
2018-04-24T05:40:36.341Z,57.37
2018-04-24T05:41:36.520Z,63.72
2018-04-24T05:42:36.700Z,65.19
2018-04-24T05:43:36.896Z,61.77
2018-04-24T05:44:37.059Z,62.50
2018-04-24T05:45:37.243Z,67.38
2018-04-24T05:46:37.423Z,77.39
2018-04-24T05:47:37.606Z,68.12
2018-04-24T05:48:37.784Z,67.14
2018-04-24T05:49:37.958Z,62.26
2018-04-24T05:50:38.145Z,63.96
2018-04-24T05:51:38.719Z,63.96
2018-04-24T05:52:38.517Z,63.96
2018-04-24T05:53:38.702Z,62.74
2018-04-24T05:54:38.882Z,62.26
2018-04-24T05:55:39.065Z,71.53
2018-04-24T05:56:39.245Z,68.60
2018-04-24T05:57:39.423Z,62.99
2018-04-24T05:58:39.626Z,61.52
2018-04-24T05:59:39.829Z,66.65
2018-04-24T06:00:40.013Z,66.16
2018-04-24T06:01:40.208Z,64.70
2018-04-24T06:02:40.377Z,64.94
2018-04-24T06:03:40.572Z,66.89
2018-04-24T06:04:40.755Z,61.04
2018-04-24T06:05:40.935Z,70.07
2018-04-24T06:06:41.127Z,68.60
2018-04-24T06:07:41.305Z,59.57
2018-04-24T06:08:41.515Z,72.75
2018-04-24T06:09:41.673Z,68.36
2018-04-24T06:10:41.853Z,65.92
2018-04-24T06:11:42.037Z,67.38
2018-04-24T06:12:42.261Z,68.36
2018-04-24T06:13:42.404Z,67.87
2018-04-24T06:14:42.593Z,67.38
2018-04-24T06:15:42.780Z,67.38
2018-04-24T06:16:42.971Z,68.12
2018-04-24T06:17:43.140Z,63.96
2018-04-24T06:18:43.325Z,59.81
2018-04-24T06:19:43.511Z,72.75
2018-04-24T06:20:43.693Z,55.91
2018-04-24T06:21:43.880Z,62.50
2018-04-24T06:22:44.069Z,66.41
2018-04-24T06:23:44.243Z,61.77
2018-04-24T06:24:44.427Z,64.70
2018-04-24T06:25:44.615Z,64.45
2018-04-24T06:26:44.806Z,64.45
2018-04-24T06:27:44.986Z,70.07
2018-04-24T06:28:45.185Z,68.60
2018-04-24T06:29:45.350Z,66.16
2018-04-24T06:30:45.533Z,67.14
2018-04-24T06:31:45.721Z,63.72
2018-04-24T06:32:45.900Z,62.26
2018-04-24T06:33:46.085Z,61.04
2018-04-24T06:34:46.276Z,62.99
2018-04-24T06:35:46.463Z,65.92
2018-04-24T06:36:46.663Z,65.92
2018-04-24T06:37:46.819Z,67.14
2018-04-24T06:38:47.009Z,65.67
2018-04-24T06:39:47.194Z,68.36
2018-04-24T06:40:47.378Z,61.28
2018-04-24T06:41:47.567Z,62.26
2018-04-24T06:42:47.745Z,63.96
2018-04-24T06:43:47.928Z,64.45
2018-04-24T06:44:48.116Z,61.77
2018-04-24T06:45:48.301Z,67.38
2018-04-24T06:46:48.489Z,65.67
2018-04-24T06:47:48.736Z,65.92
2018-04-24T06:48:48.850Z,62.99
2018-04-24T06:49:49.036Z,69.58
2018-04-24T06:50:49.228Z,70.56
2018-04-24T06:51:49.407Z,61.77
2018-04-24T06:52:49.592Z,65.43
2018-04-24T06:53:49.786Z,61.28
2018-04-24T06:54:49.967Z,66.16
2018-04-24T06:55:50.150Z,80.08
2018-04-24T06:56:50.347Z,66.41
2018-04-24T06:57:50.517Z,65.43
2018-04-24T06:58:50.711Z,61.52
2018-04-24T06:59:50.878Z,64.70
2018-04-24T07:00:51.147Z,67.38
2018-04-24T07:01:51.490Z,66.65
2018-04-24T07:02:51.430Z,64.21
2018-04-24T07:03:51.623Z,63.72
2018-04-24T07:04:51.800Z,65.67
2018-04-24T07:05:51.985Z,68.36
2018-04-24T07:06:52.166Z,69.09
2018-04-24T07:07:52.350Z,64.45
2018-04-24T07:08:52.537Z,63.96
2018-04-24T07:09:52.718Z,60.55
2018-04-24T07:10:52.913Z,63.48
2018-04-24T07:11:53.089Z,65.92
2018-04-24T07:12:53.280Z,71.29
2018-04-24T07:13:53.448Z,61.52
2018-04-24T07:14:53.631Z,65.43
2018-04-24T07:15:53.816Z,63.23
2018-04-24T07:16:54.079Z,72.27
2018-04-24T07:17:54.441Z,71.29
2018-04-24T07:18:54.376Z,61.52
2018-04-24T07:19:54.563Z,63.72
2018-04-24T07:20:54.748Z,59.81
2018-04-24T07:21:54.941Z,67.14
2018-04-24T07:22:55.123Z,68.60
2018-04-24T07:23:55.306Z,68.85
2018-04-24T07:24:55.493Z,85.45
2018-04-24T07:25:55.675Z,62.26
2018-04-24T07:26:55.856Z,66.89
2018-04-24T07:28:56.217Z,66.89
2018-04-24T07:29:56.409Z,68.60
2018-04-24T07:30:56.596Z,79.83
2018-04-24T07:31:56.770Z,61.28
2018-04-24T07:32:57.029Z,75.68
2018-04-24T07:33:57.145Z,90.33
2018-04-24T07:34:57.328Z,90.58
2018-04-24T07:35:57.512Z,83.50
2018-04-24T07:36:57.761Z,74.95
2018-04-24T07:37:57.883Z,63.96
2018-04-24T07:38:58.072Z,58.35
2018-04-24T07:39:58.252Z,60.79
2018-04-24T07:40:58.486Z,60.06
2018-04-24T07:41:58.628Z,79.35
2018-04-24T07:42:58.808Z,60.30
2018-04-24T07:43:58.997Z,66.89
2018-04-24T07:44:59.184Z,61.28
2018-04-24T07:45:59.369Z,73.24
2018-04-24T07:46:59.565Z,74.95
2018-04-24T07:47:59.742Z,78.61
2018-04-24T07:49:00.181Z,70.56
2018-04-24T07:50:00.116Z,78.13
2018-04-24T07:51:00.307Z,77.88
2018-04-24T07:52:00.487Z,62.50
2018-04-24T07:53:00.679Z,73.97
2018-04-24T07:54:00.859Z,77.39
2018-04-24T07:55:01.044Z,69.58
2018-04-24T07:56:01.231Z,74.46
2018-04-24T07:57:01.424Z,91.06
2018-04-24T07:58:01.608Z,89.84
2018-04-24T07:59:01.795Z,77.15
2018-04-24T08:00:01.977Z,65.43
2018-04-24T08:01:02.168Z,67.38
2018-04-24T08:02:02.351Z,62.01
2018-04-24T08:03:02.532Z,63.23
2018-04-24T08:04:02.721Z,69.34
2018-04-24T08:05:02.908Z,65.19
2018-04-24T08:06:03.091Z,65.43
2018-04-24T08:21:25.765Z,63.72
2018-04-24T08:22:25.951Z,66.41
2018-04-24T08:23:26.137Z,71.04
2018-04-24T08:24:26.319Z,61.28
2018-04-24T08:25:26.503Z,59.57
2018-04-24T08:26:26.688Z,71.53
2018-04-24T08:27:26.874Z,63.48
2018-04-24T08:28:27.051Z,60.79
2018-04-24T08:29:27.242Z,60.79
2018-04-24T08:30:27.418Z,67.14
2018-04-24T08:31:27.607Z,60.30
2018-04-24T08:32:27.793Z,70.07
2018-04-24T08:33:28.083Z,63.48
2018-04-24T08:34:28.155Z,66.41
2018-04-24T08:35:28.338Z,68.60
2018-04-24T08:36:28.525Z,65.67
2018-04-24T08:37:28.722Z,63.23
2018-04-24T08:38:28.909Z,69.82
2018-04-24T08:39:29.092Z,61.28
2018-04-24T08:40:29.283Z,59.57
2018-04-24T08:41:29.466Z,64.94
2018-04-24T08:42:29.659Z,67.87
2018-04-24T08:43:29.854Z,63.48
2018-04-24T08:44:30.045Z,76.17
2018-04-24T08:45:30.233Z,64.94
2018-04-24T08:46:30.421Z,71.04
2018-04-24T08:47:30.609Z,62.74
2018-04-24T08:48:30.868Z,75.20
2018-04-24T08:49:30.990Z,73.97
2018-04-24T08:50:31.180Z,65.19
2018-04-24T08:51:31.364Z,65.19
2018-04-24T08:52:31.566Z,65.43
2018-04-24T08:53:31.751Z,64.94
2018-04-24T08:54:31.960Z,63.23
2018-04-24T08:55:32.149Z,63.23
2018-04-24T08:56:32.365Z,65.92
2018-04-24T08:57:32.517Z,62.99
2018-04-24T08:58:32.696Z,62.01
2018-04-24T08:59:32.885Z,64.70
2018-04-24T09:00:33.085Z,67.14
2018-04-24T09:01:33.281Z,66.16
2018-04-24T09:02:33.452Z,63.72
2018-04-24T09:03:33.648Z,60.30
2018-04-24T09:04:33.822Z,59.33
2018-04-24T09:05:34.037Z,62.99
2018-04-24T09:06:34.225Z,63.72
2018-04-24T09:07:34.417Z,62.74
2018-04-24T09:08:34.680Z,65.43
2018-04-24T09:09:34.793Z,60.79
2018-04-24T09:10:34.983Z,58.11
2018-04-24T09:11:35.164Z,59.81
2018-04-24T09:12:35.353Z,63.23
2018-04-24T09:13:35.538Z,65.67
2018-04-24T09:14:35.726Z,71.29
2018-04-24T09:15:35.916Z,68.12
2018-04-24T09:16:36.103Z,61.28
2018-04-24T09:17:36.289Z,62.74
2018-04-24T09:18:36.484Z,60.79
2018-04-24T09:19:36.660Z,71.29
2018-04-24T09:20:36.861Z,60.06
2018-04-24T09:21:37.049Z,61.77
2018-04-24T09:22:37.217Z,69.34
2018-04-24T09:23:37.402Z,63.96
2018-04-24T09:24:37.832Z,68.36
2018-04-24T09:25:37.773Z,62.74
2018-04-24T09:26:37.974Z,60.79
2018-04-24T09:27:38.154Z,64.70
2018-04-24T09:28:38.340Z,67.14
2018-04-24T09:29:38.531Z,60.55
2018-04-24T09:30:38.725Z,65.43
2018-04-24T09:31:38.898Z,65.19
2018-04-24T09:32:39.467Z,69.09
2018-04-24T09:33:39.339Z,63.72
2018-04-24T09:34:39.442Z,71.53
2018-04-24T09:35:39.640Z,76.66
2018-04-24T09:36:39.828Z,61.04
2018-04-24T09:37:40.008Z,58.84
2018-04-24T09:38:40.192Z,70.31
2018-04-24T09:39:40.403Z,77.88
2018-04-24T09:40:40.579Z,69.82
2018-04-24T09:41:40.781Z,67.63
2018-04-24T09:42:40.971Z,63.48
2018-04-24T09:43:41.152Z,62.26
2018-04-24T09:44:41.353Z,76.42
2018-04-24T09:45:41.537Z,79.59
2018-04-24T09:46:41.719Z,67.38
2018-04-24T09:47:41.912Z,60.55
2018-04-24T09:48:42.120Z,63.72
2018-04-24T09:49:42.289Z,69.58
2018-04-24T09:50:42.474Z,66.65
2018-04-24T09:51:42.661Z,59.81
2018-04-24T09:52:42.826Z,59.81
2018-04-24T09:53:43.017Z,62.50
2018-04-24T09:54:43.212Z,59.81
2018-04-24T09:55:43.419Z,71.53
2018-04-24T09:56:43.634Z,67.38
2018-04-24T09:57:43.874Z,64.70
2018-04-24T09:58:43.978Z,79.10
2018-04-24T09:59:44.172Z,64.21
2018-04-24T10:00:44.368Z,68.85
2018-04-24T10:01:44.554Z,81.79
2018-04-24T10:02:44.750Z,82.03
2018-04-24T10:03:44.938Z,82.03
2018-04-24T10:04:45.111Z,81.30
2018-04-24T10:05:45.297Z,82.28
2018-04-24T10:06:45.475Z,83.01
2018-04-24T10:07:45.686Z,66.16
2018-04-24T10:08:45.854Z,60.55
2018-04-24T10:10:47.039Z,79.35
2018-04-24T10:11:46.467Z,63.96
2018-04-24T10:12:46.655Z,68.60
2018-04-24T10:13:46.844Z,61.77
2018-04-24T10:14:47.081Z,58.84
2018-04-24T10:15:47.253Z,65.67
2018-04-24T10:16:47.441Z,60.06
2018-04-24T10:17:47.702Z,64.70
2018-04-24T10:18:47.793Z,61.28
2018-04-24T10:19:48.044Z,62.01
2018-04-24T10:20:48.184Z,64.21
2018-04-24T10:21:48.359Z,63.23
2018-04-24T10:22:48.545Z,63.96
2018-04-24T10:23:48.730Z,79.59
2018-04-24T10:24:48.957Z,60.30
2018-04-24T10:25:49.104Z,61.28
2018-04-24T10:26:49.280Z,65.92
2018-04-24T10:27:49.460Z,64.94
2018-04-24T10:28:49.649Z,65.67
2018-04-24T10:29:49.836Z,61.04
2018-04-24T10:30:50.048Z,72.75
2018-04-24T10:31:50.201Z,58.11
2018-04-24T10:32:50.392Z,67.63
2018-04-24T10:33:50.579Z,63.23
2018-04-24T10:34:50.760Z,64.94
2018-04-24T10:35:50.959Z,74.71
2018-04-24T10:36:51.133Z,62.99
2018-04-24T10:37:51.320Z,59.33
2018-04-24T10:38:54.046Z,59.81
2018-04-24T10:39:51.728Z,59.08
2018-04-24T10:40:51.917Z,65.92
2018-04-24T10:41:52.106Z,61.04
2018-04-24T10:42:52.294Z,64.21
2018-04-24T10:43:52.575Z,67.63
2018-04-24T10:44:52.714Z,65.67
2018-04-24T10:45:52.867Z,75.44
2018-04-24T10:46:53.052Z,76.66
2018-04-24T10:47:53.239Z,65.43
2018-04-24T10:48:53.424Z,66.65
2018-04-24T10:49:53.614Z,62.99
2018-04-24T10:50:53.802Z,57.37
2018-04-24T10:51:54.172Z,69.09
2018-04-24T10:52:54.178Z,61.52
2018-04-24T10:53:54.378Z,62.26
2018-04-24T10:54:54.562Z,58.84
2018-04-24T10:55:54.836Z,59.57
2018-04-24T10:56:54.936Z,68.36
2018-04-24T10:57:55.137Z,64.45
2018-04-24T10:58:55.333Z,64.21
2018-04-24T10:59:55.513Z,74.71
2018-04-24T11:00:55.702Z,62.50
2018-04-24T11:01:55.911Z,66.41
2018-04-24T11:02:56.379Z,61.52
2018-04-24T11:03:56.267Z,63.72
2018-04-24T11:04:56.480Z,64.94
2018-04-24T11:05:56.624Z,60.79
2018-04-24T11:06:56.809Z,62.50
2018-04-24T11:07:56.994Z,56.64
2018-04-24T11:08:57.177Z,57.62
2018-04-24T11:09:58.079Z,72.75
2018-04-24T11:10:57.618Z,59.33
2018-04-24T11:11:57.880Z,62.99
2018-04-24T11:12:57.995Z,62.74
2018-04-24T11:13:58.177Z,57.86
2018-04-24T11:14:58.367Z,62.26
2018-04-24T11:15:58.583Z,74.46
2018-04-24T11:16:58.745Z,64.21
2018-04-24T11:17:58.933Z,63.48
2018-04-24T11:18:59.112Z,58.35
2018-04-24T11:19:59.298Z,61.28
2018-04-24T11:20:59.497Z,63.48
2018-04-24T11:21:59.685Z,67.38
2018-04-24T11:22:59.861Z,61.04
2018-04-24T11:24:00.047Z,71.04
2018-04-24T11:25:00.236Z,74.71
2018-04-24T11:26:00.409Z,68.60
2018-04-24T11:27:00.601Z,67.14
2018-04-24T11:28:00.789Z,71.29
2018-04-24T11:29:00.968Z,59.33
2018-04-24T11:30:01.157Z,62.74
2018-04-24T11:31:01.359Z,69.34
2018-04-24T11:32:01.551Z,67.63
2018-04-24T11:33:01.746Z,58.84
2018-04-24T11:34:01.953Z,59.08
2018-04-24T11:35:02.121Z,67.14
2018-04-24T11:36:02.386Z,60.79
2018-04-24T11:37:02.490Z,63.48
2018-04-24T11:38:02.678Z,60.79
2018-04-24T11:39:02.911Z,60.30
2018-04-24T11:40:03.058Z,64.70
2018-04-24T11:41:03.251Z,61.04
2018-04-24T11:42:03.439Z,67.63
2018-04-24T11:43:03.618Z,64.21
2018-04-24T11:44:03.887Z,60.55
2018-04-24T11:45:04.080Z,68.60
2018-04-24T11:46:04.190Z,62.26
2018-04-24T11:47:04.384Z,63.72
2018-04-24T11:48:04.809Z,70.07
2018-04-24T11:49:04.756Z,79.35
2018-04-24T11:50:04.937Z,67.38
2018-04-24T11:51:05.140Z,69.09
2018-04-24T11:52:05.306Z,64.70
2018-04-24T11:53:05.494Z,60.55
2018-04-24T11:54:05.683Z,60.30
2018-04-24T11:55:05.871Z,59.08
2018-04-24T11:56:06.059Z,64.21
2018-04-24T11:57:06.313Z,62.50
2018-04-24T11:58:06.455Z,62.26
2018-04-24T11:59:06.636Z,63.96
2018-04-24T12:00:06.824Z,67.87
2018-04-24T12:01:07.019Z,62.99
2018-04-24T12:02:07.195Z,65.67
2018-04-24T12:03:07.381Z,63.72
2018-04-24T12:04:07.574Z,62.50
2018-04-24T12:05:07.749Z,72.02
2018-04-24T12:06:07.938Z,65.19
2018-04-24T12:07:08.122Z,61.28
2018-04-24T12:08:08.294Z,61.52
2018-04-24T12:09:08.497Z,63.23
2018-04-24T12:10:08.675Z,60.79
2018-04-24T12:11:08.857Z,63.72
2018-04-24T12:12:09.046Z,58.84
2018-04-24T12:13:09.229Z,56.88
2018-04-24T12:14:09.411Z,58.84
2018-04-24T12:15:09.598Z,62.26
2018-04-24T12:16:09.800Z,65.43
2018-04-24T12:17:09.973Z,70.07
2018-04-24T12:18:10.181Z,67.14
2018-04-24T12:19:10.448Z,64.70
2018-04-24T12:20:10.521Z,65.67
2018-04-24T12:21:10.708Z,63.48
2018-04-24T12:22:10.896Z,60.79
2018-04-24T12:23:11.153Z,67.87
2018-04-24T12:27:43.719Z,85.45
2018-04-24T12:28:43.899Z,83.74
2018-04-24T12:29:44.097Z,67.38
2018-04-24T12:30:44.275Z,65.19
2018-04-24T12:31:44.456Z,62.99
2018-04-24T12:32:44.877Z,61.28
2018-04-24T12:33:44.817Z,66.16
2018-04-24T12:34:45.004Z,61.28
2018-04-24T12:35:45.191Z,62.99
2018-04-24T12:36:45.394Z,61.77
2018-04-24T12:37:45.555Z,60.79
2018-04-24T12:38:45.750Z,64.45
2018-04-24T12:39:46.173Z,61.28
2018-04-24T12:40:46.118Z,60.30
2018-04-24T12:41:46.313Z,56.15
2018-04-24T12:42:46.746Z,60.30
2018-04-24T12:43:46.685Z,59.57
2018-04-24T12:44:46.869Z,61.28
2018-04-24T12:45:47.094Z,68.85
2018-04-24T12:46:47.240Z,59.81
2018-04-24T12:47:47.431Z,69.34
2018-04-24T12:48:47.615Z,63.23
2018-04-24T12:49:47.808Z,61.52
2018-04-24T12:50:47.983Z,66.41
2018-04-24T12:51:48.208Z,78.37
2018-04-24T12:52:48.365Z,66.89
2018-04-24T12:53:48.552Z,79.83
2018-04-24T12:54:48.732Z,66.41
2018-04-24T12:55:48.909Z,60.30
2018-04-24T12:56:49.087Z,63.72
2018-04-24T12:57:49.312Z,67.14
2018-04-24T12:58:49.459Z,59.08
2018-04-24T12:59:49.637Z,68.12
2018-04-24T13:00:49.873Z,74.71
2018-04-24T13:01:50.010Z,57.62
2018-04-24T13:02:53.119Z,58.59
2018-04-24T13:03:50.746Z,60.79
2018-04-24T13:04:50.607Z,63.48
2018-04-24T13:05:51.585Z,67.38
2018-04-24T13:06:51.015Z,58.59
2018-04-24T13:07:51.201Z,68.36
2018-04-24T13:08:51.417Z,80.81
2018-04-24T13:09:51.665Z,63.48
2018-04-24T13:10:51.763Z,77.88
2018-04-24T13:11:51.944Z,73.73
2018-04-24T13:12:52.127Z,74.22
2018-04-24T13:13:52.315Z,74.22
2018-04-24T13:14:52.976Z,65.92
2018-04-24T13:15:52.719Z,65.43
2018-04-24T13:16:52.922Z,70.80
2018-04-24T13:17:53.038Z,62.26